aviador You're here:

KHSE Decoded Metar

HATTERAS/MITCHEL in NC, USA
Report Time2018-05-28 08:51:00
UTC Time2018-05-28 09:46:51
Flight Rules vfr VFR
Wind190° at 05 kt
W.Decomp.*RWY 25: 3.2 kt HW 3.8 kt LCW
W.Rank190° ranks 23
Current wind is below 190° avg. (8.7)
Visibility9999 m
Phenomena:N/A
Clouds:N/A
Expected CloudBase > 400 ft AGL from Temp-Dew spread
CeilingNone
Temp24°C (ISA +9)
Dew Point23°C (94% RH)
QNH1017 hPa
Density Alt1,289 ft
Elevation10 ft
Report Wrong Elevation
Raw Report
METAR KHSE 280851Z AUTO 19005KT 9SM CLR 24/23 A3002 RMK AO2 SLP167
T02440228 56011=

Extra information for KHSE:More info

Metar Taf Metar & Taf Last 4 Metars F.Rules Stats Wind Profile Meteogram Temp Stats Airport Information Weather charts Add Link Nearby VenuesMetar ALERT Operation Metar Decoded Social comments

AIRNAV info for KHSE